Airfield :
LOGIN :

Register | Disclaimer

   EN    FR    IT 

 










Legend :    VFR   Marginal VFR   IFR   Intensive IFR   Very Intensive IFR
Visi :
Ceiling :
>= 8 km
>= 3000ft
5 to 8 km
1000 to 3000 ft
1500m to 5 km
500 to 1000 ft
800 to 1500m
200 to 500 ft
< 800m
< 200 ft
Symbols :   Thunderstorms  Fog  Heavy snow  Heavy precipitations  Wind > 20 kt
SIGMETs :     Misc.  Thunderstorms  Icing  Turbulence  Mountain Waves  Volcanic Ashes






- Airport Elevation : 247 ft
- IATA code : BLL


EKBI - Billund

CURRENT METAR :
  • 280020Z AUTO 21005KT 9999 FEW020/// SCT036/// 01/01 Q1000

EXPIRED METARs :
  • 272350Z AUTO 21004KT 9999 -SHRA BKN005/// BKN047/// 01/01 Q1000
  • 272320Z AUTO 21006KT 9999 -SN OVC004/// 01/01 Q0999
  • 272250Z AUTO 19006KT 9999 -SN OVC005/// 01/00 Q0999
  • 272220Z AUTO 17006KT 9999 -RA SCT015/// BKN072/// 01/00 Q0999
  • 272150Z AUTO 16005KT 9999 -DZ FEW012/// SCT013/// BKN049/// BKN100/// 01/00 Q0999

TAF TAF EKBI
Valid from the 28 at 00:00 until the 29 at 00:00 UTC


272328Z 2800/2824 21005KT 9999 BKN020
TEMPO 2800/2812 4000 SHSNRA BKN004 SCT020CB
BECMG 2808/2810 27015KT
BECMG 2822/2824 16015KT 4000 RADZ BKN012



MET'MAP, your aeronautical weather chart ! - Copyright ORBIFLY December 2007 - Disclaimer

ORBIFLY MET'MAP TEAM :

Programming & Development : Alexandra Zaïnal
Concept & original design : Baudouin d'Aumeries
Assistance for programming : Marc-Olivier Méhu
Technical & hardware support : Manuel Goepfert

Contact : metmap@orbifly.com




SOURCES & CREDITS :

   NOAA